sensor_id;sensor_type;location;lat;lon;timestamp;temperature;humidity
51559;DHT22;61650;48.882;2.092;2023-07-13T00:00:47;15.70;73.70
51559;DHT22;61650;48.882;2.092;2023-07-13T00:03:12;15.80;73.60
51559;DHT22;61650;48.882;2.092;2023-07-13T00:05:40;15.70;73.60
51559;DHT22;61650;48.882;2.092;2023-07-13T00:08:07;15.70;73.60
51559;DHT22;61650;48.882;2.092;2023-07-13T00:10:33;15.70;73.70
51559;DHT22;61650;48.882;2.092;2023-07-13T00:12:59;15.60;73.90
51559;DHT22;61650;48.882;2.092;2023-07-13T00:15:26;15.60;73.90
51559;DHT22;61650;48.882;2.092;2023-07-13T00:17:53;15.60;74.10
51559;DHT22;61650;48.882;2.092;2023-07-13T00:20:23;15.50;74.20
51559;DHT22;61650;48.882;2.092;2023-07-13T00:22:51;15.60;74.30
51559;DHT22;61650;48.882;2.092;2023-07-13T00:25:19;15.50;74.30
51559;DHT22;61650;48.882;2.092;2023-07-13T00:27:47;15.50;74.30
51559;DHT22;61650;48.882;2.092;2023-07-13T00:30:16;15.60;74.40
51559;DHT22;61650;48.882;2.092;2023-07-13T00:32:42;15.70;74.10
51559;DHT22;61650;48.882;2.092;2023-07-13T00:35:08;15.70;73.90
51559;DHT22;61650;48.882;2.092;2023-07-13T00:37:34;15.80;73.60
51559;DHT22;61650;48.882;2.092;2023-07-13T00:40:04;15.90;73.20
51559;DHT22;61650;48.882;2.092;2023-07-13T00:42:31;16.00;72.80
51559;DHT22;61650;48.882;2.092;2023-07-13T00:47:41;16.10;72.20
51559;DHT22;61650;48.882;2.092;2023-07-13T00:50:10;16.20;72.00
51559;DHT22;61650;48.882;2.092;2023-07-13T00:52:41;16.30;71.80
51559;DHT22;61650;48.882;2.092;2023-07-13T00:55:09;16.30;71.30
51559;DHT22;61650;48.882;2.092;2023-07-13T00:57:35;16.40;71.30
51559;DHT22;61650;48.882;2.092;2023-07-13T01:00:04;16.40;71.20
51559;DHT22;61650;48.882;2.092;2023-07-13T01:02:32;16.40;71.20
51559;DHT22;61650;48.882;2.092;2023-07-13T01:04:58;16.50;70.90
51559;DHT22;61650;48.882;2.092;2023-07-13T01:07:24;16.70;70.50
51559;DHT22;61650;48.882;2.092;2023-07-13T01:09:50;16.70;70.10
51559;DHT22;61650;48.882;2.092;2023-07-13T01:12:16;16.80;69.90
51559;DHT22;61650;48.882;2.092;2023-07-13T01:14:42;16.90;69.70
51559;DHT22;61650;48.882;2.092;2023-07-13T01:17:10;17.00;69.30
51559;DHT22;61650;48.882;2.092;2023-07-13T01:19:39;17.00;68.90
51559;DHT22;61650;48.882;2.092;2023-07-13T01:22:07;17.00;68.60
51559;DHT22;61650;48.882;2.092;2023-07-13T01:24:38;17.00;68.70
51559;DHT22;61650;48.882;2.092;2023-07-13T01:27:04;17.10;68.10
51559;DHT22;61650;48.882;2.092;2023-07-13T01:29:33;17.10;67.90
51559;DHT22;61650;48.882;2.092;2023-07-13T01:31:59;17.10;67.70
51559;DHT22;61650;48.882;2.092;2023-07-13T01:34:26;17.10;67.50
51559;DHT22;61650;48.882;2.092;2023-07-13T01:36:52;17.10;67.40
51559;DHT22;61650;48.882;2.092;2023-07-13T01:39:22;17.10;67.30
51559;DHT22;61650;48.882;2.092;2023-07-13T01:41:48;17.20;67.50
51559;DHT22;61650;48.882;2.092;2023-07-13T01:44:14;17.20;66.40
51559;DHT22;61650;48.882;2.092;2023-07-13T01:46:39;17.20;66.50
51559;DHT22;61650;48.882;2.092;2023-07-13T01:49:05;17.20;66.10
51559;DHT22;61650;48.882;2.092;2023-07-13T01:51:31;17.20;66.40
51559;DHT22;61650;48.882;2.092;2023-07-13T01:53:56;17.20;65.70
51559;DHT22;61650;48.882;2.092;2023-07-13T01:56:22;17.20;65.90
51559;DHT22;61650;48.882;2.092;2023-07-13T01:58:48;17.20;65.10
51559;DHT22;61650;48.882;2.092;2023-07-13T02:01:13;17.20;65.30
51559;DHT22;61650;48.882;2.092;2023-07-13T02:03:39;17.20;65.70
51559;DHT22;61650;48.882;2.092;2023-07-13T02:06:04;17.20;65.20
51559;DHT22;61650;48.882;2.092;2023-07-13T02:08:32;17.10;65.00
51559;DHT22;61650;48.882;2.092;2023-07-13T02:10:58;17.10;65.10
51559;DHT22;61650;48.882;2.092;2023-07-13T02:13:23;17.10;65.30
51559;DHT22;61650;48.882;2.092;2023-07-13T02:15:52;17.00;65.20
51559;DHT22;61650;48.882;2.092;2023-07-13T02:18:18;17.10;65.20
51559;DHT22;61650;48.882;2.092;2023-07-13T02:20:43;17.10;65.70
51559;DHT22;61650;48.882;2.092;2023-07-13T02:23:09;17.10;65.00
51559;DHT22;61650;48.882;2.092;2023-07-13T02:25:35;17.10;64.70
51559;DHT22;61650;48.882;2.092;2023-07-13T02:28:00;17.10;64.80
51559;DHT22;61650;48.882;2.092;2023-07-13T02:30:27;17.00;64.90
51559;DHT22;61650;48.882;2.092;2023-07-13T02:32:55;17.00;65.00
51559;DHT22;61650;48.882;2.092;2023-07-13T02:35:21;16.90;64.90
51559;DHT22;61650;48.882;2.092;2023-07-13T02:37:47;16.90;65.10
51559;DHT22;61650;48.882;2.092;2023-07-13T02:40:12;16.90;65.10
51559;DHT22;61650;48.882;2.092;2023-07-13T02:42:39;16.90;65.10
51559;DHT22;61650;48.882;2.092;2023-07-13T02:45:05;16.80;65.30
51559;DHT22;61650;48.882;2.092;2023-07-13T02:47:32;16.70;65.60
51559;DHT22;61650;48.882;2.092;2023-07-13T02:49:58;16.70;65.90
51559;DHT22;61650;48.882;2.092;2023-07-13T02:52:24;16.70;65.80
51559;DHT22;61650;48.882;2.092;2023-07-13T02:54:49;16.70;66.10
51559;DHT22;61650;48.882;2.092;2023-07-13T02:57:15;16.60;66.10
51559;DHT22;61650;48.882;2.092;2023-07-13T02:59:41;16.60;66.30
51559;DHT22;61650;48.882;2.092;2023-07-13T03:02:06;16.60;66.30
51559;DHT22;61650;48.882;2.092;2023-07-13T03:04:32;16.60;66.50
51559;DHT22;61650;48.882;2.092;2023-07-13T03:06:58;16.60;66.30
51559;DHT22;61650;48.882;2.092;2023-07-13T03:09:24;16.60;66.60
51559;DHT22;61650;48.882;2.092;2023-07-13T03:11:53;16.60;66.40
51559;DHT22;61650;48.882;2.092;2023-07-13T03:14:20;16.50;66.60
51559;DHT22;61650;48.882;2.092;2023-07-13T03:16:45;16.50;66.70
51559;DHT22;61650;48.882;2.092;2023-07-13T03:19:11;16.60;67.00
51559;DHT22;61650;48.882;2.092;2023-07-13T03:21:36;16.60;66.70
51559;DHT22;61650;48.882;2.092;2023-07-13T03:24:02;16.50;66.50
51559;DHT22;61650;48.882;2.092;2023-07-13T03:26:28;16.50;66.70
51559;DHT22;61650;48.882;2.092;2023-07-13T03:28:53;16.40;66.80
51559;DHT22;61650;48.882;2.092;2023-07-13T03:31:22;16.30;67.20
51559;DHT22;61650;48.882;2.092;2023-07-13T03:33:49;16.30;67.60
51559;DHT22;61650;48.882;2.092;2023-07-13T03:36:20;16.30;67.60
51559;DHT22;61650;48.882;2.092;2023-07-13T03:38:47;16.30;67.40
51559;DHT22;61650;48.882;2.092;2023-07-13T03:41:14;16.40;67.40
51559;DHT22;61650;48.882;2.092;2023-07-13T03:43:39;16.40;66.90
51559;DHT22;61650;48.882;2.092;2023-07-13T03:46:05;16.30;67.40
51559;DHT22;61650;48.882;2.092;2023-07-13T03:48:30;16.30;67.30
51559;DHT22;61650;48.882;2.092;2023-07-13T03:50:56;16.40;67.40
51559;DHT22;61650;48.882;2.092;2023-07-13T03:53:21;16.50;66.80
51559;DHT22;61650;48.882;2.092;2023-07-13T03:55:47;16.50;66.40
51559;DHT22;61650;48.882;2.092;2023-07-13T03:58:27;16.50;67.10
51559;DHT22;61650;48.882;2.092;2023-07-13T04:00:54;16.60;66.90
51559;DHT22;61650;48.882;2.092;2023-07-13T04:03:20;16.60;66.50
51559;DHT22;61650;48.882;2.092;2023-07-13T04:05:46;16.70;66.90
51559;DHT22;61650;48.882;2.092;2023-07-13T04:08:12;16.70;66.30
51559;DHT22;61650;48.882;2.092;2023-07-13T04:10:37;16.70;66.60
51559;DHT22;61650;48.882;2.092;2023-07-13T04:13:04;16.70;66.70
51559;DHT22;61650;48.882;2.092;2023-07-13T04:15:31;16.70;66.80
51559;DHT22;61650;48.882;2.092;2023-07-13T04:17:57;16.70;66.70
51559;DHT22;61650;48.882;2.092;2023-07-13T04:20:24;16.60;67.10
51559;DHT22;61650;48.882;2.092;2023-07-13T04:22:49;16.60;67.30
51559;DHT22;61650;48.882;2.092;2023-07-13T04:25:15;16.60;67.60
51559;DHT22;61650;48.882;2.092;2023-07-13T04:27:41;16.60;67.60
51559;DHT22;61650;48.882;2.092;2023-07-13T04:30:07;16.60;67.60
51559;DHT22;61650;48.882;2.092;2023-07-13T04:32:33;16.60;67.80
51559;DHT22;61650;48.882;2.092;2023-07-13T04:34:58;16.60;67.90
51559;DHT22;61650;48.882;2.092;2023-07-13T04:37:25;16.70;68.10
51559;DHT22;61650;48.882;2.092;2023-07-13T04:39:52;16.80;67.60
51559;DHT22;61650;48.882;2.092;2023-07-13T04:42:18;16.80;67.70
51559;DHT22;61650;48.882;2.092;2023-07-13T04:44:51;16.90;67.50
51559;DHT22;61650;48.882;2.092;2023-07-13T04:47:17;16.90;67.30
51559;DHT22;61650;48.882;2.092;2023-07-13T04:49:44;16.90;67.40
51559;DHT22;61650;48.882;2.092;2023-07-13T04:52:10;17.00;67.10
51559;DHT22;61650;48.882;2.092;2023-07-13T04:54:35;17.00;67.20
51559;DHT22;61650;48.882;2.092;2023-07-13T04:57:03;17.10;67.20
51559;DHT22;61650;48.882;2.092;2023-07-13T04:59:34;17.10;67.30
51559;DHT22;61650;48.882;2.092;2023-07-13T05:02:00;17.20;67.10
51559;DHT22;61650;48.882;2.092;2023-07-13T05:04:27;17.20;66.90
51559;DHT22;61650;48.882;2.092;2023-07-13T05:06:52;17.30;67.00
51559;DHT22;61650;48.882;2.092;2023-07-13T05:09:18;17.20;67.10
51559;DHT22;61650;48.882;2.092;2023-07-13T05:11:44;17.20;67.20
51559;DHT22;61650;48.882;2.092;2023-07-13T05:14:09;17.10;67.40
51559;DHT22;61650;48.882;2.092;2023-07-13T05:16:36;17.20;67.60
51559;DHT22;61650;48.882;2.092;2023-07-13T05:19:02;17.20;67.50
51559;DHT22;61650;48.882;2.092;2023-07-13T05:21:28;17.30;67.90
51559;DHT22;61650;48.882;2.092;2023-07-13T05:23:54;17.20;68.00
51559;DHT22;61650;48.882;2.092;2023-07-13T05:26:19;17.10;68.30
51559;DHT22;61650;48.882;2.092;2023-07-13T05:28:46;17.20;68.40
51559;DHT22;61650;48.882;2.092;2023-07-13T05:31:12;17.20;68.30
51559;DHT22;61650;48.882;2.092;2023-07-13T05:33:39;17.20;68.70
51559;DHT22;61650;48.882;2.092;2023-07-13T05:36:05;17.10;68.90
51559;DHT22;61650;48.882;2.092;2023-07-13T05:38:30;17.10;69.40
51559;DHT22;61650;48.882;2.092;2023-07-13T05:40:57;17.20;69.10
51559;DHT22;61650;48.882;2.092;2023-07-13T05:43:22;17.30;69.10
51559;DHT22;61650;48.882;2.092;2023-07-13T05:45:49;17.20;69.20
51559;DHT22;61650;48.882;2.092;2023-07-13T05:48:16;17.20;69.40
51559;DHT22;61650;48.882;2.092;2023-07-13T05:50:41;17.20;69.40
51559;DHT22;61650;48.882;2.092;2023-07-13T05:53:07;17.20;69.70
51559;DHT22;61650;48.882;2.092;2023-07-13T05:55:33;17.30;69.40
51559;DHT22;61650;48.882;2.092;2023-07-13T05:58:00;17.30;69.20
51559;DHT22;61650;48.882;2.092;2023-07-13T06:00:25;17.30;69.40
51559;DHT22;61650;48.882;2.092;2023-07-13T06:02:51;17.40;69.30
51559;DHT22;61650;48.882;2.092;2023-07-13T06:05:17;17.40;69.30
51559;DHT22;61650;48.882;2.092;2023-07-13T06:07:42;17.30;69.50
51559;DHT22;61650;48.882;2.092;2023-07-13T06:10:08;17.20;70.20
51559;DHT22;61650;48.882;2.092;2023-07-13T06:12:34;17.20;70.10
51559;DHT22;61650;48.882;2.092;2023-07-13T06:15:00;17.30;70.00
51559;DHT22;61650;48.882;2.092;2023-07-13T06:17:25;17.40;70.10
51559;DHT22;61650;48.882;2.092;2023-07-13T06:19:51;17.40;69.90
51559;DHT22;61650;48.882;2.092;2023-07-13T06:22:16;17.40;69.90
51559;DHT22;61650;48.882;2.092;2023-07-13T06:24:42;17.40;70.20
51559;DHT22;61650;48.882;2.092;2023-07-13T06:27:07;17.40;70.60
51559;DHT22;61650;48.882;2.092;2023-07-13T06:29:33;17.40;70.80
51559;DHT22;61650;48.882;2.092;2023-07-13T06:31:59;17.50;71.00
51559;DHT22;61650;48.882;2.092;2023-07-13T06:34:24;17.60;70.80
51559;DHT22;61650;48.882;2.092;2023-07-13T06:36:50;17.60;70.60
51559;DHT22;61650;48.882;2.092;2023-07-13T06:39:15;17.70;70.50
51559;DHT22;61650;48.882;2.092;2023-07-13T06:41:41;17.70;70.60
51559;DHT22;61650;48.882;2.092;2023-07-13T06:44:06;17.80;70.60
51559;DHT22;61650;48.882;2.092;2023-07-13T06:46:32;17.80;70.60
51559;DHT22;61650;48.882;2.092;2023-07-13T06:48:58;17.70;70.70
51559;DHT22;61650;48.882;2.092;2023-07-13T06:51:24;17.70;70.60
51559;DHT22;61650;48.882;2.092;2023-07-13T06:53:51;17.80;70.90
51559;DHT22;61650;48.882;2.092;2023-07-13T06:56:17;17.70;71.20
51559;DHT22;61650;48.882;2.092;2023-07-13T06:58:42;17.80;71.30
51559;DHT22;61650;48.882;2.092;2023-07-13T07:01:08;18.00;71.00
51559;DHT22;61650;48.882;2.092;2023-07-13T07:03:34;18.10;70.80
51559;DHT22;61650;48.882;2.092;2023-07-13T07:06:22;18.10;70.60
51559;DHT22;61650;48.882;2.092;2023-07-13T07:08:49;18.00;71.40
51559;DHT22;61650;48.882;2.092;2023-07-13T07:11:17;18.00;71.10
51559;DHT22;61650;48.882;2.092;2023-07-13T07:13:43;18.00;71.30
51559;DHT22;61650;48.882;2.092;2023-07-13T07:16:09;17.90;71.80
51559;DHT22;61650;48.882;2.092;2023-07-13T07:18:35;17.80;71.90
51559;DHT22;61650;48.882;2.092;2023-07-13T07:21:01;17.80;72.10
51559;DHT22;61650;48.882;2.092;2023-07-13T07:23:26;17.90;72.10
51559;DHT22;61650;48.882;2.092;2023-07-13T07:25:52;17.90;72.30
51559;DHT22;61650;48.882;2.092;2023-07-13T07:28:18;18.00;72.00
51559;DHT22;61650;48.882;2.092;2023-07-13T07:30:45;18.10;71.70
51559;DHT22;61650;48.882;2.092;2023-07-13T07:33:10;18.10;71.80
51559;DHT22;61650;48.882;2.092;2023-07-13T07:35:36;18.20;71.00
51559;DHT22;61650;48.882;2.092;2023-07-13T07:38:02;18.40;70.30
51559;DHT22;61650;48.882;2.092;2023-07-13T07:40:28;18.60;69.70
51559;DHT22;61650;48.882;2.092;2023-07-13T07:42:53;18.70;69.00
51559;DHT22;61650;48.882;2.092;2023-07-13T07:45:19;18.90;68.70
51559;DHT22;61650;48.882;2.092;2023-07-13T07:47:45;19.00;67.40
51559;DHT22;61650;48.882;2.092;2023-07-13T07:50:13;19.10;67.10
51559;DHT22;61650;48.882;2.092;2023-07-13T07:52:39;18.80;66.80
51559;DHT22;61650;48.882;2.092;2023-07-13T07:55:06;18.80;66.60
51559;DHT22;61650;48.882;2.092;2023-07-13T07:57:32;18.80;66.50
51559;DHT22;61650;48.882;2.092;2023-07-13T07:59:58;18.80;66.00
51559;DHT22;61650;48.882;2.092;2023-07-13T08:02:24;18.90;65.60
51559;DHT22;61650;48.882;2.092;2023-07-13T08:04:50;19.00;65.70
51559;DHT22;61650;48.882;2.092;2023-07-13T08:07:16;19.10;65.30
51559;DHT22;61650;48.882;2.092;2023-07-13T08:09:41;19.10;65.90
51559;DHT22;61650;48.882;2.092;2023-07-13T08:12:07;19.30;65.80
51559;DHT22;61650;48.882;2.092;2023-07-13T08:14:33;19.40;65.20
51559;DHT22;61650;48.882;2.092;2023-07-13T08:16:59;19.60;64.90
51559;DHT22;61650;48.882;2.092;2023-07-13T08:19:24;19.70;64.30
51559;DHT22;61650;48.882;2.092;2023-07-13T08:21:50;19.90;63.90
51559;DHT22;61650;48.882;2.092;2023-07-13T08:24:16;20.00;61.20
51559;DHT22;61650;48.882;2.092;2023-07-13T08:26:44;20.00;62.20
51559;DHT22;61650;48.882;2.092;2023-07-13T08:29:10;19.90;62.50
51559;DHT22;61650;48.882;2.092;2023-07-13T08:31:36;20.00;61.50
51559;DHT22;61650;48.882;2.092;2023-07-13T08:34:01;20.00;61.40
51559;DHT22;61650;48.882;2.092;2023-07-13T08:36:28;20.00;60.00
51559;DHT22;61650;48.882;2.092;2023-07-13T08:38:54;19.90;61.20
51559;DHT22;61650;48.882;2.092;2023-07-13T08:41:20;20.00;60.90
51559;DHT22;61650;48.882;2.092;2023-07-13T08:43:49;20.00;59.60
51559;DHT22;61650;48.882;2.092;2023-07-13T08:48:59;20.30;59.40
51559;DHT22;61650;48.882;2.092;2023-07-13T08:54:32;20.20;59.60
51559;DHT22;61650;48.882;2.092;2023-07-13T08:57:11;20.40;58.70
51559;DHT22;61650;48.882;2.092;2023-07-13T08:59:37;20.40;58.50
51559;DHT22;61650;48.882;2.092;2023-07-13T09:05:01;20.50;57.80
51559;DHT22;61650;48.882;2.092;2023-07-13T09:10:41;20.40;57.80
51559;DHT22;61650;48.882;2.092;2023-07-13T09:15:41;20.20;58.00
51559;DHT22;61650;48.882;2.092;2023-07-13T09:18:19;20.10;58.10
51559;DHT22;61650;48.882;2.092;2023-07-13T09:21:00;20.00;58.40
51559;DHT22;61650;48.882;2.092;2023-07-13T09:23:29;19.80;58.90
51559;DHT22;61650;48.882;2.092;2023-07-13T09:26:19;19.80;59.60
51559;DHT22;61650;48.882;2.092;2023-07-13T09:28:48;19.80;59.80
51559;DHT22;61650;48.882;2.092;2023-07-13T09:31:20;19.80;60.00
51559;DHT22;61650;48.882;2.092;2023-07-13T09:33:48;19.90;59.60
51559;DHT22;61650;48.882;2.092;2023-07-13T09:36:24;20.10;59.90
51559;DHT22;61650;48.882;2.092;2023-07-13T09:41:33;20.40;58.40
51559;DHT22;61650;48.882;2.092;2023-07-13T09:44:15;20.30;58.30
51559;DHT22;61650;48.882;2.092;2023-07-13T09:46:53;20.20;59.00
51559;DHT22;61650;48.882;2.092;2023-07-13T09:49:26;20.30;59.50
51559;DHT22;61650;48.882;2.092;2023-07-13T09:52:01;20.40;58.40
51559;DHT22;61650;48.882;2.092;2023-07-13T09:54:28;20.40;58.60
51559;DHT22;61650;48.882;2.092;2023-07-13T09:56:58;20.40;58.30
51559;DHT22;61650;48.882;2.092;2023-07-13T09:59:29;20.40;58.00
51559;DHT22;61650;48.882;2.092;2023-07-13T10:01:54;20.50;57.60
51559;DHT22;61650;48.882;2.092;2023-07-13T10:04:27;20.40;57.90
51559;DHT22;61650;48.882;2.092;2023-07-13T10:07:06;20.40;57.50
51559;DHT22;61650;48.882;2.092;2023-07-13T10:09:32;20.40;57.70
51559;DHT22;61650;48.882;2.092;2023-07-13T10:11:58;20.40;57.60
51559;DHT22;61650;48.882;2.092;2023-07-13T10:14:23;20.40;57.20
51559;DHT22;61650;48.882;2.092;2023-07-13T10:16:55;20.40;58.00
51559;DHT22;61650;48.882;2.092;2023-07-13T10:19:25;20.40;57.30
51559;DHT22;61650;48.882;2.092;2023-07-13T10:22:24;20.40;56.70
51559;DHT22;61650;48.882;2.092;2023-07-13T10:24:51;20.40;57.00
51559;DHT22;61650;48.882;2.092;2023-07-13T10:27:19;20.50;56.20
51559;DHT22;61650;48.882;2.092;2023-07-13T10:32:15;20.50;56.20
51559;DHT22;61650;48.882;2.092;2023-07-13T10:34:44;20.60;55.50
51559;DHT22;61650;48.882;2.092;2023-07-13T10:37:20;20.50;56.00
51559;DHT22;61650;48.882;2.092;2023-07-13T10:39:47;20.50;56.50
51559;DHT22;61650;48.882;2.092;2023-07-13T10:42:29;20.50;57.00
51559;DHT22;61650;48.882;2.092;2023-07-13T10:44:55;20.60;57.10
51559;DHT22;61650;48.882;2.092;2023-07-13T10:47:21;20.70;57.40
51559;DHT22;61650;48.882;2.092;2023-07-13T10:49:52;20.80;56.70
51559;DHT22;61650;48.882;2.092;2023-07-13T10:52:40;21.00;56.00
51559;DHT22;61650;48.882;2.092;2023-07-13T10:55:33;21.10;54.90
51559;DHT22;61650;48.882;2.092;2023-07-13T10:58:12;21.20;55.20
51559;DHT22;61650;48.882;2.092;2023-07-13T11:01:17;21.40;54.20
51559;DHT22;61650;48.882;2.092;2023-07-13T11:06:34;21.60;54.80
51559;DHT22;61650;48.882;2.092;2023-07-13T11:09:37;21.70;53.70
51559;DHT22;61650;48.882;2.092;2023-07-13T11:12:10;21.80;53.40
51559;DHT22;61650;48.882;2.092;2023-07-13T11:20:23;22.30;49.20
51559;DHT22;61650;48.882;2.092;2023-07-13T11:23:15;22.40;50.50
51559;DHT22;61650;48.882;2.092;2023-07-13T11:25:44;22.40;48.90
51559;DHT22;61650;48.882;2.092;2023-07-13T11:36:23;22.60;48.80
51559;DHT22;61650;48.882;2.092;2023-07-13T11:39:02;22.60;43.90
51559;DHT22;61650;48.882;2.092;2023-07-13T11:41:44;22.40;46.40
51559;DHT22;61650;48.882;2.092;2023-07-13T11:44:16;22.50;46.80
51559;DHT22;61650;48.882;2.092;2023-07-13T11:46:51;22.80;47.30
51559;DHT22;61650;48.882;2.092;2023-07-13T11:49:19;23.30;45.30
51559;DHT22;61650;48.882;2.092;2023-07-13T11:51:45;23.90;45.50
51559;DHT22;61650;48.882;2.092;2023-07-13T11:57:28;23.90;41.90
51559;DHT22;61650;48.882;2.092;2023-07-13T11:59:55;23.10;43.60
51559;DHT22;61650;48.882;2.092;2023-07-13T12:02:32;22.90;43.80
51559;DHT22;61650;48.882;2.092;2023-07-13T12:04:59;22.90;43.10
51559;DHT22;61650;48.882;2.092;2023-07-13T12:07:29;22.80;44.20
51559;DHT22;61650;48.882;2.092;2023-07-13T12:10:03;22.80;44.50
51559;DHT22;61650;48.882;2.092;2023-07-13T12:12:36;22.70;44.70
51559;DHT22;61650;48.882;2.092;2023-07-13T12:15:06;22.70;44.60
51559;DHT22;61650;48.882;2.092;2023-07-13T12:17:34;22.70;44.20
51559;DHT22;61650;48.882;2.092;2023-07-13T12:20:03;22.50;43.90
51559;DHT22;61650;48.882;2.092;2023-07-13T12:22:35;22.50;44.90
51559;DHT22;61650;48.882;2.092;2023-07-13T12:25:01;22.70;45.00
51559;DHT22;61650;48.882;2.092;2023-07-13T12:27:28;23.00;44.30
51559;DHT22;61650;48.882;2.092;2023-07-13T12:30:17;23.10;43.50
51559;DHT22;61650;48.882;2.092;2023-07-13T12:33:00;23.10;41.40
51559;DHT22;61650;48.882;2.092;2023-07-13T12:35:28;23.00;41.50
51559;DHT22;61650;48.882;2.092;2023-07-13T12:37:57;23.00;42.70
51559;DHT22;61650;48.882;2.092;2023-07-13T12:40:31;23.40;41.30
51559;DHT22;61650;48.882;2.092;2023-07-13T12:42:58;23.60;42.30
51559;DHT22;61650;48.882;2.092;2023-07-13T12:45:27;23.60;41.50
51559;DHT22;61650;48.882;2.092;2023-07-13T12:47:55;23.70;41.40
51559;DHT22;61650;48.882;2.092;2023-07-13T12:50:40;23.80;41.60
51559;DHT22;61650;48.882;2.092;2023-07-13T12:53:13;23.80;42.30
51559;DHT22;61650;48.882;2.092;2023-07-13T12:55:42;23.70;42.30
51559;DHT22;61650;48.882;2.092;2023-07-13T12:58:29;23.70;42.10
51559;DHT22;61650;48.882;2.092;2023-07-13T13:00:58;23.80;42.40
51559;DHT22;61650;48.882;2.092;2023-07-13T13:03:36;23.60;41.60
51559;DHT22;61650;48.882;2.092;2023-07-13T13:06:05;23.60;41.30
51559;DHT22;61650;48.882;2.092;2023-07-13T13:08:33;23.70;42.70
51559;DHT22;61650;48.882;2.092;2023-07-13T13:10:59;23.90;42.60
51559;DHT22;61650;48.882;2.092;2023-07-13T13:13:25;23.90;41.60
51559;DHT22;61650;48.882;2.092;2023-07-13T13:15:51;23.80;42.50
51559;DHT22;61650;48.882;2.092;2023-07-13T13:18:22;23.90;41.40
51559;DHT22;61650;48.882;2.092;2023-07-13T13:20:49;24.00;41.70
51559;DHT22;61650;48.882;2.092;2023-07-13T13:23:18;24.00;41.80
51559;DHT22;61650;48.882;2.092;2023-07-13T13:25:49;23.90;42.70
51559;DHT22;61650;48.882;2.092;2023-07-13T13:28:20;23.70;41.70
51559;DHT22;61650;48.882;2.092;2023-07-13T13:30:49;24.30;41.90
51559;DHT22;61650;48.882;2.092;2023-07-13T13:33:18;24.70;41.10
51559;DHT22;61650;48.882;2.092;2023-07-13T13:35:44;24.50;40.60
51559;DHT22;61650;48.882;2.092;2023-07-13T13:38:14;24.20;40.70
51559;DHT22;61650;48.882;2.092;2023-07-13T13:40:42;24.00;41.40
51559;DHT22;61650;48.882;2.092;2023-07-13T13:43:16;23.80;41.90
51559;DHT22;61650;48.882;2.092;2023-07-13T13:45:42;23.90;42.00
51559;DHT22;61650;48.882;2.092;2023-07-13T13:48:19;23.90;42.90
51559;DHT22;61650;48.882;2.092;2023-07-13T13:50:46;23.90;42.30
51559;DHT22;61650;48.882;2.092;2023-07-13T13:53:13;23.80;42.40
51559;DHT22;61650;48.882;2.092;2023-07-13T13:55:41;23.70;42.90
51559;DHT22;61650;48.882;2.092;2023-07-13T13:58:10;23.70;42.70
51559;DHT22;61650;48.882;2.092;2023-07-13T14:00:37;23.60;41.90
51559;DHT22;61650;48.882;2.092;2023-07-13T14:03:03;23.60;42.90
51559;DHT22;61650;48.882;2.092;2023-07-13T14:05:29;23.60;43.00
51559;DHT22;61650;48.882;2.092;2023-07-13T14:07:56;23.50;42.20
51559;DHT22;61650;48.882;2.092;2023-07-13T14:10:25;23.30;43.10
51559;DHT22;61650;48.882;2.092;2023-07-13T14:12:53;23.30;43.20
51559;DHT22;61650;48.882;2.092;2023-07-13T14:15:24;23.30;43.80
51559;DHT22;61650;48.882;2.092;2023-07-13T14:17:50;23.40;43.50
51559;DHT22;61650;48.882;2.092;2023-07-13T14:20:18;23.50;43.80
51559;DHT22;61650;48.882;2.092;2023-07-13T14:22:44;23.60;43.50
51559;DHT22;61650;48.882;2.092;2023-07-13T14:25:14;23.70;42.60
51559;DHT22;61650;48.882;2.092;2023-07-13T14:27:41;23.80;43.60
51559;DHT22;61650;48.882;2.092;2023-07-13T14:30:18;23.90;43.70
51559;DHT22;61650;48.882;2.092;2023-07-13T14:32:45;24.10;42.90
51559;DHT22;61650;48.882;2.092;2023-07-13T14:35:12;24.10;41.60
51559;DHT22;61650;48.882;2.092;2023-07-13T14:37:39;24.10;42.70
51559;DHT22;61650;48.882;2.092;2023-07-13T14:40:16;24.30;41.90
51559;DHT22;61650;48.882;2.092;2023-07-13T14:42:42;24.30;41.90
51559;DHT22;61650;48.882;2.092;2023-07-13T14:45:18;24.20;41.30
51559;DHT22;61650;48.882;2.092;2023-07-13T14:47:45;24.20;42.60
51559;DHT22;61650;48.882;2.092;2023-07-13T14:50:32;24.20;43.00
51559;DHT22;61650;48.882;2.092;2023-07-13T14:52:58;24.20;42.10
51559;DHT22;61650;48.882;2.092;2023-07-13T14:55:23;24.30;43.00
51559;DHT22;61650;48.882;2.092;2023-07-13T14:57:52;24.40;42.70
51559;DHT22;61650;48.882;2.092;2023-07-13T15:00:20;24.40;43.00
51559;DHT22;61650;48.882;2.092;2023-07-13T15:02:51;24.30;41.80
51559;DHT22;61650;48.882;2.092;2023-07-13T15:05:21;24.10;41.10
51559;DHT22;61650;48.882;2.092;2023-07-13T15:07:48;23.90;42.40
51559;DHT22;61650;48.882;2.092;2023-07-13T15:10:20;23.90;41.50
51559;DHT22;61650;48.882;2.092;2023-07-13T15:12:46;23.90;41.40
51559;DHT22;61650;48.882;2.092;2023-07-13T15:15:13;23.80;41.40
51559;DHT22;61650;48.882;2.092;2023-07-13T15:17:40;23.80;41.40
51559;DHT22;61650;48.882;2.092;2023-07-13T15:20:19;23.80;42.10
51559;DHT22;61650;48.882;2.092;2023-07-13T15:22:46;23.70;42.30
51559;DHT22;61650;48.882;2.092;2023-07-13T15:25:25;23.60;42.80
51559;DHT22;61650;48.882;2.092;2023-07-13T15:27:51;23.40;43.30
51559;DHT22;61650;48.882;2.092;2023-07-13T15:30:18;23.40;43.80
51559;DHT22;61650;48.882;2.092;2023-07-13T15:32:44;23.50;43.60
51559;DHT22;61650;48.882;2.092;2023-07-13T15:35:19;23.50;43.40
51559;DHT22;61650;48.882;2.092;2023-07-13T15:37:45;23.50;43.00
51559;DHT22;61650;48.882;2.092;2023-07-13T15:40:12;23.50;43.60
51559;DHT22;61650;48.882;2.092;2023-07-13T15:42:42;23.50;43.60
51559;DHT22;61650;48.882;2.092;2023-07-13T15:45:21;23.40;43.20
51559;DHT22;61650;48.882;2.092;2023-07-13T15:47:48;23.30;43.40
51559;DHT22;61650;48.882;2.092;2023-07-13T15:50:16;23.40;43.80
51559;DHT22;61650;48.882;2.092;2023-07-13T15:52:43;23.40;43.90
51559;DHT22;61650;48.882;2.092;2023-07-13T15:55:11;23.40;44.10
51559;DHT22;61650;48.882;2.092;2023-07-13T15:57:37;23.40;44.30
51559;DHT22;61650;48.882;2.092;2023-07-13T16:00:05;23.50;44.50
51559;DHT22;61650;48.882;2.092;2023-07-13T16:02:38;23.50;44.00
51559;DHT22;61650;48.882;2.092;2023-07-13T16:05:03;23.40;43.40
51559;DHT22;61650;48.882;2.092;2023-07-13T16:07:29;23.40;43.70
51559;DHT22;61650;48.882;2.092;2023-07-13T16:09:55;23.30;43.80
51559;DHT22;61650;48.882;2.092;2023-07-13T16:12:20;23.30;43.80
51559;DHT22;61650;48.882;2.092;2023-07-13T16:14:46;23.30;43.80
51559;DHT22;61650;48.882;2.092;2023-07-13T16:17:13;23.40;43.90
51559;DHT22;61650;48.882;2.092;2023-07-13T16:19:40;23.40;44.30